ENGC

Gullfax Platform Airport

Norway
METAR ENGC 140050Z 19032KT 9999 BKN015 05/02 Q1026 W07/S6
Observed Flight Rules
Dec-14 @ 00:50 UTC (48 minutes ago) Marginal Visual Flight Rules
Wind Visibility Clouds
190° at 32 knots 10,000+ meters
  • Broken at 1,500' AGL
Temperatures Readings
Current 5°C / 41°F
Dewpoint 2°C / 36°F
Humidity 81%
Altimeter 30.3" Hg
Pressure 1026 hPa
Elevation 10
METAR ENGC 140050Z 19032KT 9999 BKN015 05/02 Q1026 W07/S6
Observed Flight Rules
Dec-14 @ 00:50 UTC
(48 minutes ago)
MVFR
Wind Visibility
190° at 32 knots 10,000+ meters
Clouds
  • Broken at 1,500' AGL
Temperature Dewpoint
5°C / 41°F 2°C / 36°F
Humidity Altimeter Pressure
81% 30.3" Hg 1026 hPa